Terminal Aerodrome Forecast
Issued by NWS

Home | Current Version | Previous Version | Text Only | Print | Product List | Glossary On
Versions: 1 2 3 4 5 6 7 8 9 10 11 12 13
000
FTUS43 KIND 301633 AAA
TAFBMG
TAF AMD
KBMG 301633Z 3017/3112 21006KT P6SM SCT040 BKN100
     FM310200 18004KT P6SM BKN100
     FM310900 18003KT 4SM BR BKN100=

USA.gov is the U.S. government's official web portal to all federal, state and local government web resources and services.